Airfield :
LOGIN :

Register | Disclaimer

   EN    FR    IT 

 










Legend :    VFR   Marginal VFR   IFR   Intensive IFR   Very Intensive IFR
Visi :
Ceiling :
>= 8 km
>= 3000ft
5 to 8 km
1000 to 3000 ft
1500m to 5 km
500 to 1000 ft
800 to 1500m
200 to 500 ft
< 800m
< 200 ft
Symbols :   Thunderstorms  Fog  Heavy snow  Heavy precipitations  Wind > 20 kt
SIGMETs :     Misc.  Thunderstorms  Icing  Turbulence  Mountain Waves  Volcanic Ashes






- Airport Elevation : 84 ft


LFBC - Cazaux

CURRENT METAR :
  • 111200Z AUTO 14006KT 110V180 CAVOK 32/20 Q1012 NOSIG

EXPIRED METARs :
  • 111130Z AUTO 06007KT 030V110 CAVOK 32/20 Q1011 NOSIG
  • 111100Z AUTO 07007KT 020V120 CAVOK 32/20 Q1012 NOSIG
  • 111030Z AUTO 06005KT 360V110 9999 // NSC 30/21 Q1012
  • 111000Z AUTO 03005KT 350V080 CAVOK 28/22 Q1012 NOSIG
  • 110930Z AUTO 03005KT CAVOK 26/21 Q1013 NOSIG

TAF TAF LFBC
Valid from the 11 at 09:00 until the 12 at 09:00 UTC


110800Z 1109/1209 VRB02KT 9999 FEW007 SCT180
TEMPO 1115/1209 SHRA BKN080TCU
PROB40
TEMPO 1118/1123 VRB20G35KT 2000 TSRA SCT005 SCT030 BKN070CB
PROB30
TEMPO 1120/1122 1000 SHGR
PROB30
TEMPO 1203/1207 0500 BCFG
PROB40
TEMPO 1206/1209 VRB15G25KT 2000 TSRA SCT005 SCT030 BKN050CB



MET'MAP, your aeronautical weather chart ! - Copyright ORBIFLY December 2007 - Disclaimer

ORBIFLY MET'MAP TEAM :

Programming & Development : Alexandra Zaïnal
Concept & original design : Baudouin d'Aumeries
Assistance for programming : Marc-Olivier Méhu
Technical & hardware support : Manuel Goepfert

Contact : metmap@orbifly.com




SOURCES & CREDITS :

   NOAA